sensor_id;sensor_type;location;lat;lon;timestamp;pressure;altitude;pressure_sealevel;temperature;humidity
11349;BME280;5729;43.570;27.826;2023-02-19T00:00:51;99013.75;;;11.42;100.00
11349;BME280;5729;43.570;27.826;2023-02-19T00:03:16;99015.22;;;11.36;100.00
11349;BME280;5729;43.570;27.826;2023-02-19T00:05:42;99017.56;;;11.38;100.00
11349;BME280;5729;43.570;27.826;2023-02-19T00:08:07;99011.13;;;11.46;100.00
11349;BME280;5729;43.570;27.826;2023-02-19T00:10:33;99001.72;;;11.36;100.00
11349;BME280;5729;43.570;27.826;2023-02-19T00:12:58;99002.88;;;11.35;100.00
11349;BME280;5729;43.570;27.826;2023-02-19T00:15:23;98999.09;;;11.40;100.00
11349;BME280;5729;43.570;27.826;2023-02-19T00:17:49;99002.97;;;11.16;100.00
11349;BME280;5729;43.570;27.826;2023-02-19T00:20:15;98994.50;;;11.17;100.00
11349;BME280;5729;43.570;27.826;2023-02-19T00:22:40;98981.78;;;11.18;100.00
11349;BME280;5729;43.570;27.826;2023-02-19T00:25:06;98975.09;;;11.08;100.00
11349;BME280;5729;43.570;27.826;2023-02-19T00:27:31;98976.03;;;11.19;100.00
11349;BME280;5729;43.570;27.826;2023-02-19T00:29:57;98942.84;;;11.15;100.00
11349;BME280;5729;43.570;27.826;2023-02-19T00:32:22;98959.63;;;11.28;100.00
11349;BME280;5729;43.570;27.826;2023-02-19T00:34:48;98956.72;;;11.17;100.00
11349;BME280;5729;43.570;27.826;2023-02-19T00:37:13;98953.66;;;11.19;100.00
11349;BME280;5729;43.570;27.826;2023-02-19T00:39:38;98940.19;;;11.19;100.00
11349;BME280;5729;43.570;27.826;2023-02-19T00:42:04;98936.91;;;11.33;100.00
11349;BME280;5729;43.570;27.826;2023-02-19T00:44:29;98936.56;;;11.34;100.00
11349;BME280;5729;43.570;27.826;2023-02-19T00:46:55;98923.56;;;11.43;100.00
11349;BME280;5729;43.570;27.826;2023-02-19T00:49:22;98907.81;;;11.45;100.00
11349;BME280;5729;43.570;27.826;2023-02-19T00:51:48;98899.28;;;11.43;100.00
11349;BME280;5729;43.570;27.826;2023-02-19T00:54:15;98911.34;;;11.53;100.00
11349;BME280;5729;43.570;27.826;2023-02-19T00:56:41;98911.00;;;11.54;100.00
11349;BME280;5729;43.570;27.826;2023-02-19T00:59:07;98907.50;;;11.50;100.00
11349;BME280;5729;43.570;27.826;2023-02-19T01:01:32;98908.28;;;11.54;100.00
11349;BME280;5729;43.570;27.826;2023-02-19T01:03:58;98904.09;;;11.57;100.00
11349;BME280;5729;43.570;27.826;2023-02-19T01:06:23;98894.84;;;11.58;100.00
11349;BME280;5729;43.570;27.826;2023-02-19T01:08:49;98894.06;;;11.57;100.00
11349;BME280;5729;43.570;27.826;2023-02-19T01:11:15;98880.16;;;11.55;100.00
11349;BME280;5729;43.570;27.826;2023-02-19T01:13:41;98869.09;;;11.34;100.00
11349;BME280;5729;43.570;27.826;2023-02-19T01:16:09;98881.13;;;11.40;100.00
11349;BME280;5729;43.570;27.826;2023-02-19T01:18:35;98876.47;;;11.37;100.00
11349;BME280;5729;43.570;27.826;2023-02-19T01:21:08;98878.69;;;11.32;100.00
11349;BME280;5729;43.570;27.826;2023-02-19T01:23:36;98875.16;;;11.24;100.00
11349;BME280;5729;43.570;27.826;2023-02-19T01:26:12;98875.91;;;11.24;100.00
11349;BME280;5729;43.570;27.826;2023-02-19T01:28:38;98877.84;;;11.24;100.00
11349;BME280;5729;43.570;27.826;2023-02-19T01:31:05;98874.00;;;11.25;100.00
11349;BME280;5729;43.570;27.826;2023-02-19T01:33:32;98863.16;;;11.21;100.00
11349;BME280;5729;43.570;27.826;2023-02-19T01:35:57;98863.63;;;11.27;100.00
11349;BME280;5729;43.570;27.826;2023-02-19T01:38:23;98862.69;;;11.46;100.00
11349;BME280;5729;43.570;27.826;2023-02-19T01:40:56;98864.22;;;11.43;100.00
11349;BME280;5729;43.570;27.826;2023-02-19T01:43:22;98861.16;;;11.45;100.00
11349;BME280;5729;43.570;27.826;2023-02-19T01:45:48;98851.53;;;11.47;100.00
11349;BME280;5729;43.570;27.826;2023-02-19T01:48:20;98855.16;;;11.58;100.00
11349;BME280;5729;43.570;27.826;2023-02-19T01:51:07;98872.91;;;11.59;100.00
11349;BME280;5729;43.570;27.826;2023-02-19T01:53:38;98875.97;;;11.58;100.00
11349;BME280;5729;43.570;27.826;2023-02-19T01:56:06;98871.75;;;11.60;100.00
11349;BME280;5729;43.570;27.826;2023-02-19T01:58:34;98862.75;;;11.49;100.00
11349;BME280;5729;43.570;27.826;2023-02-19T02:01:02;98864.69;;;11.52;100.00
11349;BME280;5729;43.570;27.826;2023-02-19T02:03:29;98861.63;;;11.54;100.00
11349;BME280;5729;43.570;27.826;2023-02-19T02:08:30;98864.69;;;11.49;100.00
11349;BME280;5729;43.570;27.826;2023-02-19T02:11:14;98862.28;;;11.44;100.00
11349;BME280;5729;43.570;27.826;2023-02-19T02:13:41;98868.47;;;11.44;100.00
11349;BME280;5729;43.570;27.826;2023-02-19T02:16:19;98847.44;;;11.27;100.00
11349;BME280;5729;43.570;27.826;2023-02-19T02:19:21;98862.50;;;11.32;100.00
11349;BME280;5729;43.570;27.826;2023-02-19T02:21:57;98860.50;;;11.25;100.00
11349;BME280;5729;43.570;27.826;2023-02-19T02:27:16;98860.78;;;11.16;100.00
11349;BME280;5729;43.570;27.826;2023-02-19T02:32:44;98852.56;;;11.06;100.00
11349;BME280;5729;43.570;27.826;2023-02-19T02:35:19;98864.94;;;11.10;100.00
11349;BME280;5729;43.570;27.826;2023-02-19T02:37:47;98850.72;;;11.13;100.00
11349;BME280;5729;43.570;27.826;2023-02-19T02:40:14;98852.72;;;11.20;100.00
11349;BME280;5729;43.570;27.826;2023-02-19T02:42:41;98862.88;;;11.30;100.00
11349;BME280;5729;43.570;27.826;2023-02-19T02:48:04;98860.28;;;11.37;100.00
11349;BME280;5729;43.570;27.826;2023-02-19T02:50:34;98862.22;;;11.40;100.00
11349;BME280;5729;43.570;27.826;2023-02-19T02:53:06;98854.66;;;11.49;100.00
11349;BME280;5729;43.570;27.826;2023-02-19T02:55:51;98841.59;;;11.55;100.00
11349;BME280;5729;43.570;27.826;2023-02-19T02:58:19;98853.91;;;11.52;100.00
11349;BME280;5729;43.570;27.826;2023-02-19T03:00:52;98856.66;;;11.56;100.00
11349;BME280;5729;43.570;27.826;2023-02-19T03:03:38;98855.59;;;11.64;100.00
11349;BME280;5729;43.570;27.826;2023-02-19T03:06:08;98845.94;;;11.63;100.00
11349;BME280;5729;43.570;27.826;2023-02-19T03:08:40;98857.19;;;11.69;100.00
11349;BME280;5729;43.570;27.826;2023-02-19T03:11:11;98836.19;;;11.55;100.00
11349;BME280;5729;43.570;27.826;2023-02-19T03:14:09;98853.28;;;11.66;100.00
11349;BME280;5729;43.570;27.826;2023-02-19T03:17:01;98847.16;;;11.69;100.00
11349;BME280;5729;43.570;27.826;2023-02-19T03:19:52;98831.06;;;11.76;100.00
11349;BME280;5729;43.570;27.826;2023-02-19T03:22:32;98831.13;;;11.80;100.00
11349;BME280;5729;43.570;27.826;2023-02-19T03:25:09;98838.72;;;11.71;100.00
11349;BME280;5729;43.570;27.826;2023-02-19T03:27:57;98852.63;;;11.73;100.00
11349;BME280;5729;43.570;27.826;2023-02-19T03:30:28;98853.34;;;11.70;100.00
11349;BME280;5729;43.570;27.826;2023-02-19T03:33:08;98851.78;;;11.69;100.00
11349;BME280;5729;43.570;27.826;2023-02-19T03:35:41;98841.78;;;11.69;100.00
11349;BME280;5729;43.570;27.826;2023-02-19T03:38:21;98849.81;;;11.65;100.00
11349;BME280;5729;43.570;27.826;2023-02-19T03:41:02;98867.13;;;11.61;100.00
11349;BME280;5729;43.570;27.826;2023-02-19T03:43:49;98874.84;;;11.62;100.00
11349;BME280;5729;43.570;27.826;2023-02-19T03:46:28;98887.97;;;11.64;100.00
11349;BME280;5729;43.570;27.826;2023-02-19T03:49:05;98897.19;;;11.59;100.00
11349;BME280;5729;43.570;27.826;2023-02-19T03:51:43;98915.31;;;11.62;100.00
11349;BME280;5729;43.570;27.826;2023-02-19T03:57:01;98906.00;;;11.56;100.00
11349;BME280;5729;43.570;27.826;2023-02-19T04:02:18;98886.69;;;11.51;100.00
11349;BME280;5729;43.570;27.826;2023-02-19T04:04:53;98885.97;;;11.57;100.00
11349;BME280;5729;43.570;27.826;2023-02-19T04:07:21;98885.16;;;11.53;100.00
11349;BME280;5729;43.570;27.826;2023-02-19T04:09:48;98878.59;;;11.54;100.00
11349;BME280;5729;43.570;27.826;2023-02-19T04:12:22;98880.88;;;11.49;100.00
11349;BME280;5729;43.570;27.826;2023-02-19T04:14:56;98888.50;;;11.43;100.00
11349;BME280;5729;43.570;27.826;2023-02-19T04:17:48;98868.09;;;11.46;100.00
11349;BME280;5729;43.570;27.826;2023-02-19T04:20:16;98867.75;;;11.47;100.00
11349;BME280;5729;43.570;27.826;2023-02-19T04:22:43;98862.75;;;11.49;100.00
11349;BME280;5729;43.570;27.826;2023-02-19T04:25:09;98877.69;;;11.43;100.00
11349;BME280;5729;43.570;27.826;2023-02-19T04:27:36;98883.44;;;11.38;100.00
11349;BME280;5729;43.570;27.826;2023-02-19T04:30:04;98899.94;;;11.33;100.00
11349;BME280;5729;43.570;27.826;2023-02-19T04:32:30;98900.00;;;11.40;100.00
11349;BME280;5729;43.570;27.826;2023-02-19T04:34:56;98925.03;;;11.37;100.00
11349;BME280;5729;43.570;27.826;2023-02-19T04:37:21;98936.13;;;11.32;100.00
11349;BME280;5729;43.570;27.826;2023-02-19T04:39:47;98937.44;;;11.15;100.00
11349;BME280;5729;43.570;27.826;2023-02-19T04:42:12;98944.25;;;11.06;100.00
11349;BME280;5729;43.570;27.826;2023-02-19T04:44:38;98944.59;;;11.04;100.00
11349;BME280;5729;43.570;27.826;2023-02-19T04:47:03;98936.03;;;10.99;100.00
11349;BME280;5729;43.570;27.826;2023-02-19T04:49:29;98940.28;;;11.00;100.00
11349;BME280;5729;43.570;27.826;2023-02-19T04:51:54;98930.19;;;10.93;100.00
11349;BME280;5729;43.570;27.826;2023-02-19T04:54:20;98941.50;;;11.02;100.00
11349;BME280;5729;43.570;27.826;2023-02-19T04:56:45;98947.78;;;10.87;100.00
11349;BME280;5729;43.570;27.826;2023-02-19T04:59:11;98954.28;;;10.82;100.00
11349;BME280;5729;43.570;27.826;2023-02-19T05:01:37;98956.66;;;10.87;100.00
11349;BME280;5729;43.570;27.826;2023-02-19T05:04:02;98950.44;;;10.83;100.00
11349;BME280;5729;43.570;27.826;2023-02-19T05:06:29;98952.81;;;10.88;100.00
11349;BME280;5729;43.570;27.826;2023-02-19T05:08:54;98965.22;;;10.93;100.00
11349;BME280;5729;43.570;27.826;2023-02-19T05:11:20;98960.13;;;10.88;100.00
11349;BME280;5729;43.570;27.826;2023-02-19T05:13:48;98964.38;;;10.89;100.00
11349;BME280;5729;43.570;27.826;2023-02-19T05:16:14;98970.50;;;10.86;100.00
11349;BME280;5729;43.570;27.826;2023-02-19T05:18:41;98975.66;;;10.95;100.00
11349;BME280;5729;43.570;27.826;2023-02-19T05:21:07;98985.25;;;10.92;100.00
11349;BME280;5729;43.570;27.826;2023-02-19T05:23:33;98981.63;;;10.84;100.00
11349;BME280;5729;43.570;27.826;2023-02-19T05:25:58;98994.53;;;10.95;100.00
11349;BME280;5729;43.570;27.826;2023-02-19T05:28:24;99009.50;;;10.92;100.00
11349;BME280;5729;43.570;27.826;2023-02-19T05:30:54;99010.66;;;10.91;100.00
11349;BME280;5729;43.570;27.826;2023-02-19T05:33:22;99001.53;;;10.99;100.00
11349;BME280;5729;43.570;27.826;2023-02-19T05:35:50;98995.53;;;10.86;100.00
11349;BME280;5729;43.570;27.826;2023-02-19T05:38:17;98987.16;;;10.91;100.00
11349;BME280;5729;43.570;27.826;2023-02-19T05:40:43;99001.78;;;10.90;100.00
11349;BME280;5729;43.570;27.826;2023-02-19T05:43:10;98999.38;;;10.85;100.00
11349;BME280;5729;43.570;27.826;2023-02-19T05:45:36;99003.59;;;10.83;100.00
11349;BME280;5729;43.570;27.826;2023-02-19T05:48:03;99020.72;;;10.94;100.00
11349;BME280;5729;43.570;27.826;2023-02-19T05:50:29;99028.03;;;10.94;100.00
11349;BME280;5729;43.570;27.826;2023-02-19T05:52:55;99030.34;;;10.95;100.00
11349;BME280;5729;43.570;27.826;2023-02-19T05:55:21;99039.59;;;10.94;100.00
11349;BME280;5729;43.570;27.826;2023-02-19T05:57:47;99052.34;;;10.97;100.00
11349;BME280;5729;43.570;27.826;2023-02-19T06:00:15;99049.00;;;11.04;100.00
11349;BME280;5729;43.570;27.826;2023-02-19T06:02:42;99043.44;;;10.93;100.00
11349;BME280;5729;43.570;27.826;2023-02-19T06:05:08;99039.47;;;11.10;100.00
11349;BME280;5729;43.570;27.826;2023-02-19T06:07:34;99030.16;;;11.07;100.00
11349;BME280;5729;43.570;27.826;2023-02-19T06:10:00;99019.44;;;11.11;100.00
11349;BME280;5729;43.570;27.826;2023-02-19T06:12:26;99032.88;;;11.07;100.00
11349;BME280;5729;43.570;27.826;2023-02-19T06:14:51;99035.72;;;11.18;100.00
11349;BME280;5729;43.570;27.826;2023-02-19T06:17:17;99046.53;;;11.18;100.00
11349;BME280;5729;43.570;27.826;2023-02-19T06:19:42;99044.59;;;11.18;100.00
11349;BME280;5729;43.570;27.826;2023-02-19T06:22:08;99061.81;;;11.33;100.00
11349;BME280;5729;43.570;27.826;2023-02-19T06:24:34;99062.34;;;11.42;100.00
11349;BME280;5729;43.570;27.826;2023-02-19T06:27:04;99063.91;;;11.43;100.00
11349;BME280;5729;43.570;27.826;2023-02-19T06:29:30;99064.13;;;11.57;100.00
11349;BME280;5729;43.570;27.826;2023-02-19T06:31:56;99062.19;;;11.58;100.00
11349;BME280;5729;43.570;27.826;2023-02-19T06:34:22;99062.28;;;11.65;100.00
11349;BME280;5729;43.570;27.826;2023-02-19T06:36:48;99057.56;;;11.81;100.00
11349;BME280;5729;43.570;27.826;2023-02-19T06:39:14;99058.84;;;11.91;100.00
11349;BME280;5729;43.570;27.826;2023-02-19T06:41:39;99046.41;;;11.83;100.00
11349;BME280;5729;43.570;27.826;2023-02-19T06:44:04;99055.00;;;11.92;100.00
11349;BME280;5729;43.570;27.826;2023-02-19T06:46:30;99073.06;;;11.88;100.00
11349;BME280;5729;43.570;27.826;2023-02-19T06:48:55;99081.78;;;12.04;100.00
11349;BME280;5729;43.570;27.826;2023-02-19T06:51:21;99078.03;;;12.12;100.00
11349;BME280;5729;43.570;27.826;2023-02-19T06:53:48;99086.56;;;12.14;100.00
11349;BME280;5729;43.570;27.826;2023-02-19T06:56:25;99088.13;;;12.15;100.00
11349;BME280;5729;43.570;27.826;2023-02-19T06:58:52;99088.53;;;12.17;100.00
11349;BME280;5729;43.570;27.826;2023-02-19T07:01:17;99085.50;;;12.22;100.00
11349;BME280;5729;43.570;27.826;2023-02-19T07:03:43;99090.19;;;12.25;100.00
11349;BME280;5729;43.570;27.826;2023-02-19T07:06:08;99094.94;;;12.35;100.00
11349;BME280;5729;43.570;27.826;2023-02-19T07:08:34;99080.50;;;12.24;100.00
11349;BME280;5729;43.570;27.826;2023-02-19T07:10:59;99103.47;;;12.38;100.00
11349;BME280;5729;43.570;27.826;2023-02-19T07:13:26;99103.91;;;12.43;100.00
11349;BME280;5729;43.570;27.826;2023-02-19T07:15:57;99117.41;;;12.43;100.00
11349;BME280;5729;43.570;27.826;2023-02-19T07:18:23;99121.25;;;12.39;100.00
11349;BME280;5729;43.570;27.826;2023-02-19T07:20:48;99124.44;;;12.48;100.00
11349;BME280;5729;43.570;27.826;2023-02-19T07:23:14;99126.19;;;12.63;100.00
11349;BME280;5729;43.570;27.826;2023-02-19T07:25:39;99121.16;;;12.65;100.00
11349;BME280;5729;43.570;27.826;2023-02-19T07:28:05;99115.31;;;12.59;100.00
11349;BME280;5729;43.570;27.826;2023-02-19T07:30:31;99139.72;;;12.66;100.00
11349;BME280;5729;43.570;27.826;2023-02-19T07:32:56;99112.56;;;12.56;100.00
11349;BME280;5729;43.570;27.826;2023-02-19T07:35:22;99124.81;;;12.80;100.00
11349;BME280;5729;43.570;27.826;2023-02-19T07:37:48;99134.13;;;12.82;100.00
11349;BME280;5729;43.570;27.826;2023-02-19T07:40:13;99134.66;;;12.95;100.00
11349;BME280;5729;43.570;27.826;2023-02-19T07:42:39;99126.53;;;12.98;100.00
11349;BME280;5729;43.570;27.826;2023-02-19T07:45:04;99133.66;;;13.14;100.00
11349;BME280;5729;43.570;27.826;2023-02-19T07:47:30;99142.66;;;13.18;100.00
11349;BME280;5729;43.570;27.826;2023-02-19T07:49:56;99136.91;;;13.26;100.00
11349;BME280;5729;43.570;27.826;2023-02-19T07:52:21;99135.47;;;13.36;100.00
11349;BME280;5729;43.570;27.826;2023-02-19T07:54:47;99131.56;;;13.33;100.00
11349;BME280;5729;43.570;27.826;2023-02-19T07:57:13;99133.63;;;13.47;100.00
11349;BME280;5729;43.570;27.826;2023-02-19T07:59:38;99127.09;;;13.55;100.00
11349;BME280;5729;43.570;27.826;2023-02-19T08:02:16;99137.59;;;13.60;100.00
11349;BME280;5729;43.570;27.826;2023-02-19T08:05:01;99124.13;;;13.67;100.00
11349;BME280;5729;43.570;27.826;2023-02-19T08:07:34;99130.88;;;13.91;100.00
11349;BME280;5729;43.570;27.826;2023-02-19T08:10:00;99120.78;;;14.57;100.00
11349;BME280;5729;43.570;27.826;2023-02-19T08:12:45;99134.78;;;16.79;80.37
11349;BME280;5729;43.570;27.826;2023-02-19T08:15:29;99127.59;;;19.85;60.46
11349;BME280;5729;43.570;27.826;2023-02-19T08:17:54;99124.66;;;22.12;47.71
11349;BME280;5729;43.570;27.826;2023-02-19T08:20:20;99126.91;;;23.98;43.04
11349;BME280;5729;43.570;27.826;2023-02-19T08:22:45;99122.72;;;24.93;38.99
11349;BME280;5729;43.570;27.826;2023-02-19T08:25:10;99133.31;;;26.30;35.42
11349;BME280;5729;43.570;27.826;2023-02-19T08:27:36;99109.03;;;27.93;32.80
11349;BME280;5729;43.570;27.826;2023-02-19T08:30:01;99117.41;;;29.25;30.18
11349;BME280;5729;43.570;27.826;2023-02-19T08:32:27;99123.84;;;29.87;29.26
11349;BME280;5729;43.570;27.826;2023-02-19T08:34:52;99112.16;;;29.83;28.39
11349;BME280;5729;43.570;27.826;2023-02-19T08:37:18;99104.59;;;28.78;28.65
11349;BME280;5729;43.570;27.826;2023-02-19T08:39:43;99108.69;;;28.15;29.53
11349;BME280;5729;43.570;27.826;2023-02-19T08:42:08;99115.34;;;27.70;30.03
11349;BME280;5729;43.570;27.826;2023-02-19T08:44:34;99118.81;;;28.03;29.96
11349;BME280;5729;43.570;27.826;2023-02-19T08:46:59;99101.50;;;27.94;30.12
11349;BME280;5729;43.570;27.826;2023-02-19T08:49:26;99102.34;;;28.00;29.95
11349;BME280;5729;43.570;27.826;2023-02-19T08:51:52;99133.94;;;28.56;29.08
11349;BME280;5729;43.570;27.826;2023-02-19T08:54:17;99110.41;;;28.66;29.00
11349;BME280;5729;43.570;27.826;2023-02-19T08:56:42;99105.34;;;28.94;28.47
11349;BME280;5729;43.570;27.826;2023-02-19T08:59:08;99111.06;;;28.46;28.84
11349;BME280;5729;43.570;27.826;2023-02-19T09:01:33;99112.75;;;27.66;29.27
11349;BME280;5729;43.570;27.826;2023-02-19T09:03:59;99098.16;;;28.58;29.47
11349;BME280;5729;43.570;27.826;2023-02-19T09:06:24;99092.19;;;29.79;28.63
11349;BME280;5729;43.570;27.826;2023-02-19T09:08:50;99094.09;;;29.93;27.67
11349;BME280;5729;43.570;27.826;2023-02-19T09:11:15;99103.63;;;29.66;27.29
11349;BME280;5729;43.570;27.826;2023-02-19T09:13:41;99100.00;;;29.80;26.70
11349;BME280;5729;43.570;27.826;2023-02-19T09:16:07;99094.13;;;30.65;26.22
11349;BME280;5729;43.570;27.826;2023-02-19T09:18:32;99078.72;;;31.01;25.24
11349;BME280;5729;43.570;27.826;2023-02-19T09:20:59;99089.03;;;31.26;26.14
11349;BME280;5729;43.570;27.826;2023-02-19T09:23:25;99092.16;;;31.93;25.16
11349;BME280;5729;43.570;27.826;2023-02-19T09:25:56;99091.16;;;32.07;24.32
11349;BME280;5729;43.570;27.826;2023-02-19T09:28:24;99089.31;;;31.77;24.30
11349;BME280;5729;43.570;27.826;2023-02-19T09:30:49;99091.84;;;31.32;24.82
11349;BME280;5729;43.570;27.826;2023-02-19T09:33:15;99089.91;;;30.75;25.52
11349;BME280;5729;43.570;27.826;2023-02-19T09:35:40;99079.38;;;31.22;25.22
11349;BME280;5729;43.570;27.826;2023-02-19T09:38:05;99097.75;;;31.51;25.29
11349;BME280;5729;43.570;27.826;2023-02-19T09:40:31;99091.16;;;32.07;24.19
11349;BME280;5729;43.570;27.826;2023-02-19T09:42:57;99089.97;;;31.60;25.11
11349;BME280;5729;43.570;27.826;2023-02-19T09:45:24;99089.34;;;31.82;24.23
11349;BME280;5729;43.570;27.826;2023-02-19T09:47:55;99090.53;;;32.68;24.31
11349;BME280;5729;43.570;27.826;2023-02-19T09:50:30;99085.91;;;33.21;23.71
11349;BME280;5729;43.570;27.826;2023-02-19T09:52:59;99081.63;;;32.31;24.17
11349;BME280;5729;43.570;27.826;2023-02-19T09:55:38;99090.78;;;31.72;23.97
11349;BME280;5729;43.570;27.826;2023-02-19T09:58:51;99100.34;;;30.86;26.67
11349;BME280;5729;43.570;27.826;2023-02-19T10:01:18;99095.63;;;30.40;25.94
11349;BME280;5729;43.570;27.826;2023-02-19T10:03:46;99089.28;;;30.34;25.77
11349;BME280;5729;43.570;27.826;2023-02-19T10:06:20;99087.16;;;29.42;26.40
11349;BME280;5729;43.570;27.826;2023-02-19T10:08:49;99101.00;;;29.98;26.00
11349;BME280;5729;43.570;27.826;2023-02-19T10:11:15;99084.97;;;30.33;25.83
11349;BME280;5729;43.570;27.826;2023-02-19T10:13:48;99077.63;;;30.93;25.58
11349;BME280;5729;43.570;27.826;2023-02-19T10:16:25;99079.75;;;29.74;26.08
11349;BME280;5729;43.570;27.826;2023-02-19T10:18:51;99079.47;;;29.52;26.21
11349;BME280;5729;43.570;27.826;2023-02-19T10:21:20;99076.25;;;28.74;26.64
11349;BME280;5729;43.570;27.826;2023-02-19T10:23:53;99083.50;;;29.01;26.77
11349;BME280;5729;43.570;27.826;2023-02-19T10:26:19;99066.69;;;29.25;26.41
11349;BME280;5729;43.570;27.826;2023-02-19T10:28:44;99054.34;;;29.26;26.62
11349;BME280;5729;43.570;27.826;2023-02-19T10:31:20;99042.78;;;27.66;28.04
11349;BME280;5729;43.570;27.826;2023-02-19T10:33:54;99038.75;;;27.43;28.44
11349;BME280;5729;43.570;27.826;2023-02-19T10:36:32;99050.06;;;27.06;28.41
11349;BME280;5729;43.570;27.826;2023-02-19T10:38:59;99036.22;;;26.64;30.06
11349;BME280;5729;43.570;27.826;2023-02-19T10:41:26;99045.53;;;25.79;30.77
11349;BME280;5729;43.570;27.826;2023-02-19T10:46:24;99016.84;;;25.86;31.96
11349;BME280;5729;43.570;27.826;2023-02-19T10:49:02;99023.47;;;25.79;31.23
11349;BME280;5729;43.570;27.826;2023-02-19T10:51:31;99018.81;;;26.13;31.78
11349;BME280;5729;43.570;27.826;2023-02-19T10:54:15;99017.13;;;26.33;30.65
11349;BME280;5729;43.570;27.826;2023-02-19T10:56:41;99013.28;;;26.31;31.01
11349;BME280;5729;43.570;27.826;2023-02-19T10:59:27;99012.34;;;26.85;30.45
11349;BME280;5729;43.570;27.826;2023-02-19T11:04:30;98984.47;;;26.98;29.15
11349;BME280;5729;43.570;27.826;2023-02-19T11:07:07;98977.63;;;26.84;29.70
11349;BME280;5729;43.570;27.826;2023-02-19T11:09:38;98988.66;;;25.73;30.64
11349;BME280;5729;43.570;27.826;2023-02-19T11:12:05;98977.97;;;26.26;32.60
11349;BME280;5729;43.570;27.826;2023-02-19T11:14:33;98975.38;;;26.31;30.97
11349;BME280;5729;43.570;27.826;2023-02-19T11:17:00;98975.56;;;26.00;29.94
11349;BME280;5729;43.570;27.826;2023-02-19T11:19:38;98969.06;;;27.30;29.84
11349;BME280;5729;43.570;27.826;2023-02-19T11:22:32;98971.84;;;26.31;29.28
11349;BME280;5729;43.570;27.826;2023-02-19T11:25:20;98961.75;;;26.00;29.34
11349;BME280;5729;43.570;27.826;2023-02-19T11:28:05;98963.81;;;25.73;30.72
11349;BME280;5729;43.570;27.826;2023-02-19T11:30:38;98967.31;;;25.64;30.81
11349;BME280;5729;43.570;27.826;2023-02-19T11:35:44;98960.94;;;24.90;30.73
11349;BME280;5729;43.570;27.826;2023-02-19T11:38:13;98971.44;;;25.41;30.78
11349;BME280;5729;43.570;27.826;2023-02-19T11:46:11;98957.34;;;25.57;30.50
11349;BME280;5729;43.570;27.826;2023-02-19T11:51:44;98977.88;;;24.71;31.55
11349;BME280;5729;43.570;27.826;2023-02-19T11:57:02;98950.78;;;25.73;30.92
11349;BME280;5729;43.570;27.826;2023-02-19T11:59:45;98961.31;;;25.29;31.41
11349;BME280;5729;43.570;27.826;2023-02-19T12:02:41;98949.38;;;25.59;32.44
11349;BME280;5729;43.570;27.826;2023-02-19T12:05:48;98947.84;;;25.58;32.09
11349;BME280;5729;43.570;27.826;2023-02-19T12:08:39;98946.50;;;24.77;33.92
11349;BME280;5729;43.570;27.826;2023-02-19T12:16:32;98939.88;;;22.28;37.07
11349;BME280;5729;43.570;27.826;2023-02-19T12:30:24;98938.63;;;21.62;39.89
11349;BME280;5729;43.570;27.826;2023-02-19T12:35:52;98925.94;;;21.81;39.49
11349;BME280;5729;43.570;27.826;2023-02-19T12:38:57;98917.91;;;21.32;40.31
11349;BME280;5729;43.570;27.826;2023-02-19T12:41:43;98909.19;;;20.56;41.33
11349;BME280;5729;43.570;27.826;2023-02-19T12:44:34;98920.63;;;19.99;41.15
11349;BME280;5729;43.570;27.826;2023-02-19T12:47:03;98919.75;;;19.85;42.29
11349;BME280;5729;43.570;27.826;2023-02-19T12:49:37;98917.41;;;20.04;42.56
11349;BME280;5729;43.570;27.826;2023-02-19T12:52:24;98911.25;;;19.80;43.27
11349;BME280;5729;43.570;27.826;2023-02-19T12:54:53;98911.16;;;20.03;42.53
11349;BME280;5729;43.570;27.826;2023-02-19T12:57:31;98907.06;;;20.11;42.21
11349;BME280;5729;43.570;27.826;2023-02-19T13:02:40;98890.59;;;19.59;44.42
11349;BME280;5729;43.570;27.826;2023-02-19T13:08:46;98901.84;;;19.81;44.40
11349;BME280;5729;43.570;27.826;2023-02-19T13:11:16;98893.28;;;19.79;45.27
11349;BME280;5729;43.570;27.826;2023-02-19T13:16:48;98878.59;;;20.61;43.71
11349;BME280;5729;43.570;27.826;2023-02-19T13:19:15;98879.09;;;20.72;42.99
11349;BME280;5729;43.570;27.826;2023-02-19T13:21:41;98876.31;;;21.05;42.47
11349;BME280;5729;43.570;27.826;2023-02-19T13:24:32;98874.66;;;21.52;41.74
11349;BME280;5729;43.570;27.826;2023-02-19T13:27:34;98876.69;;;21.77;40.60
11349;BME280;5729;43.570;27.826;2023-02-19T13:38:03;98855.06;;;20.47;42.58
11349;BME280;5729;43.570;27.826;2023-02-19T13:40:33;98862.78;;;20.33;43.03
11349;BME280;5729;43.570;27.826;2023-02-19T13:43:45;98857.09;;;19.91;43.70
11349;BME280;5729;43.570;27.826;2023-02-19T13:45:58;98867.00;;;19.65;43.89
11349;BME280;5729;43.570;27.826;2023-02-19T13:48:31;98867.00;;;19.65;44.39
11349;BME280;5729;43.570;27.826;2023-02-19T14:04:37;98868.06;;;18.65;48.21
11349;BME280;5729;43.570;27.826;2023-02-19T14:14:53;98857.03;;;19.35;46.48
11349;BME280;5729;43.570;27.826;2023-02-19T14:30:52;98844.88;;;18.27;49.69
11349;BME280;5729;43.570;27.826;2023-02-19T14:33:22;98840.50;;;18.06;51.86
11349;BME280;5729;43.570;27.826;2023-02-19T14:35:52;98852.75;;;18.21;52.54
11349;BME280;5729;43.570;27.826;2023-02-19T14:40:49;98845.81;;;18.40;52.73
11349;BME280;5729;43.570;27.826;2023-02-19T14:43:18;98857.75;;;18.26;52.19
11349;BME280;5729;43.570;27.826;2023-02-19T14:45:52;98842.81;;;18.34;52.17
11349;BME280;5729;43.570;27.826;2023-02-19T14:48:23;98841.69;;;18.55;51.77
11349;BME280;5729;43.570;27.826;2023-02-19T14:50:53;98848.25;;;18.61;51.95
11349;BME280;5729;43.570;27.826;2023-02-19T14:53:21;98860.19;;;18.71;50.15
11349;BME280;5729;43.570;27.826;2023-02-19T14:55:49;98861.03;;;18.14;51.48
11349;BME280;5729;43.570;27.826;2023-02-19T14:58:20;98844.09;;;17.99;51.56
11349;BME280;5729;43.570;27.826;2023-02-19T15:00:48;98842.06;;;17.76;52.89